createdAt,value
2019-02-23T00:01:04.338Z,52.52
2019-02-23T00:06:07.795Z,53.37
2019-02-23T00:11:09.444Z,53.45
2019-02-23T00:16:11.107Z,54.06
2019-02-23T00:21:12.771Z,53.25
2019-02-23T00:26:14.378Z,53.62
2019-02-23T00:31:16.029Z,53.72
2019-02-23T00:36:17.794Z,53.09
2019-02-23T00:41:19.393Z,53.40
2019-02-23T00:46:21.051Z,53.49
2019-02-23T00:51:22.608Z,53.01
2019-02-23T00:56:24.413Z,53.76
2019-02-23T01:01:26.035Z,53.41
2019-02-23T01:06:27.610Z,53.40
2019-02-23T01:11:29.160Z,53.33
2019-02-23T01:16:30.708Z,53.95
2019-02-23T01:21:32.367Z,53.32
2019-02-23T01:26:33.931Z,54.92
2019-02-23T01:31:35.646Z,53.84
2019-02-23T01:36:37.270Z,53.92
2019-02-23T01:41:38.931Z,53.75
2019-02-23T01:46:40.488Z,53.27
2019-02-23T01:51:42.145Z,53.32
2019-02-23T01:56:43.693Z,53.27
2019-02-23T02:01:45.388Z,53.39
2019-02-23T02:06:47.067Z,53.82
2019-02-23T02:11:48.715Z,53.77
2019-02-23T02:16:50.359Z,52.92
2019-02-23T02:21:51.915Z,52.91
2019-02-23T02:26:53.515Z,53.76
2019-02-23T02:31:55.094Z,53.74
2019-02-23T02:36:56.799Z,54.44
2019-02-23T02:41:58.528Z,55.15
2019-02-23T02:47:00.036Z,54.81
2019-02-23T02:52:01.589Z,55.76
2019-02-23T02:57:03.184Z,56.79
2019-02-23T03:02:05.442Z,56.41
2019-02-23T03:07:08.384Z,56.21
2019-02-23T03:12:09.975Z,56.79
2019-02-23T03:17:11.545Z,56.28
2019-02-23T03:22:13.106Z,56.78
2019-02-23T03:27:14.693Z,57.21
2019-02-23T03:32:16.254Z,56.51
2019-02-23T03:37:17.908Z,56.71
2019-02-23T03:42:19.572Z,57.79
2019-02-23T03:47:21.123Z,57.28
2019-02-23T03:52:22.678Z,56.68
2019-02-23T03:57:24.380Z,57.43
2019-02-23T04:02:25.926Z,57.58
2019-02-23T04:07:27.475Z,57.27
2019-02-23T04:12:29.082Z,56.89
2019-02-23T04:17:30.629Z,56.76
2019-02-23T04:22:32.183Z,58.39
2019-02-23T04:27:33.732Z,59.83
2019-02-23T04:32:35.335Z,61.73
2019-02-23T04:37:36.963Z,63.93
2019-02-23T04:42:38.604Z,64.71
2019-02-23T04:47:40.156Z,64.19
2019-02-23T04:52:41.713Z,63.28
2019-02-23T04:57:43.260Z,63.00
2019-02-23T05:02:44.818Z,62.66
2019-02-23T05:07:46.356Z,60.77
2019-02-23T05:12:48.203Z,60.79
2019-02-23T05:17:49.810Z,60.52
2019-02-23T05:22:51.360Z,60.08
2019-02-23T05:27:53.018Z,61.38
2019-02-23T05:32:54.573Z,60.28
2019-02-23T05:37:56.233Z,59.50
2019-02-23T05:43:01.015Z,58.53
2019-02-23T05:48:01.344Z,60.71
2019-02-23T05:53:02.901Z,60.39
2019-02-23T05:58:04.453Z,60.00
2019-02-23T06:03:06.139Z,58.68
2019-02-23T06:08:07.700Z,60.89
2019-02-23T06:13:09.350Z,56.83
2019-02-23T06:18:10.944Z,56.54
2019-02-23T06:23:12.715Z,59.10
2019-02-23T06:28:15.266Z,58.99
2019-02-23T06:33:16.887Z,56.44
2019-02-23T06:38:18.572Z,51.12
2019-02-23T06:43:20.393Z,49.15
2019-02-23T06:48:21.951Z,49.81
2019-02-23T06:53:23.697Z,48.09
2019-02-23T06:58:25.240Z,46.47
2019-02-23T07:03:28.831Z,45.86
2019-02-23T07:08:30.488Z,44.89
2019-02-23T07:13:32.048Z,41.71
2019-02-23T07:18:33.614Z,42.90
2019-02-23T07:23:35.162Z,39.33
2019-02-23T07:28:36.719Z,40.41
2019-02-23T07:33:38.540Z,38.95
2019-02-23T07:38:40.162Z,37.33
2019-02-23T07:43:41.714Z,38.95
2019-02-23T07:48:44.327Z,37.22
2019-02-23T07:53:45.874Z,35.91
2019-02-23T07:58:47.464Z,38.40
2019-02-23T08:03:49.064Z,37.89
2019-02-23T08:08:50.652Z,38.64
2019-02-23T08:13:52.213Z,38.54
2019-02-23T08:18:54.758Z,37.93
2019-02-23T08:23:56.309Z,37.17
2019-02-23T08:28:57.872Z,37.12
2019-02-23T08:33:59.426Z,37.77
2019-02-23T08:39:01.122Z,37.92
2019-02-23T08:44:04.568Z,37.17
2019-02-23T08:49:06.136Z,38.41
2019-02-23T08:54:07.700Z,39.21
2019-02-23T08:59:09.259Z,39.36
2019-02-23T09:04:10.866Z,39.06
2019-02-23T09:09:12.475Z,38.95
2019-02-23T09:14:14.028Z,39.65
2019-02-23T09:19:15.584Z,39.50
2019-02-23T09:24:17.149Z,37.71
2019-02-23T09:29:18.705Z,37.08
2019-02-23T09:34:20.268Z,38.73
2019-02-23T09:39:22.156Z,36.42
2019-02-23T09:44:23.764Z,37.83
2019-02-23T09:49:25.573Z,35.29
2019-02-23T09:54:27.124Z,34.95
2019-02-23T09:59:29.675Z,34.32
2019-02-23T10:04:31.229Z,31.72
2019-02-23T10:09:32.790Z,33.54
2019-02-23T10:14:34.407Z,34.04
2019-02-23T10:19:35.968Z,31.85
2019-02-23T10:24:37.518Z,33.37
2019-02-23T10:29:39.076Z,34.00
2019-02-23T10:34:40.626Z,34.45
2019-02-23T10:39:42.306Z,34.78
2019-02-23T10:44:43.949Z,35.59
2019-02-23T10:49:45.509Z,36.11
2019-02-23T10:54:47.331Z,35.77
2019-02-23T10:59:48.912Z,36.49
2019-02-23T11:04:50.459Z,36.28
2019-02-23T11:09:52.111Z,36.11
2019-02-23T11:14:53.700Z,36.42
2019-02-23T11:19:55.468Z,36.92
2019-02-23T11:24:57.723Z,36.89
2019-02-23T11:29:59.324Z,33.82
2019-02-23T11:35:00.887Z,31.06
2019-02-23T11:40:05.448Z,30.41
2019-02-23T11:45:09.196Z,31.12
2019-02-23T11:50:12.047Z,30.25
2019-02-23T11:55:14.608Z,29.10
2019-02-23T12:00:16.258Z,31.40
2019-02-23T12:05:17.908Z,32.00
2019-02-23T12:10:19.467Z,31.29
2019-02-23T12:15:21.054Z,32.52
2019-02-23T12:20:22.617Z,31.36
2019-02-23T12:25:26.388Z,32.84
2019-02-23T12:30:28.006Z,32.32
2019-02-23T12:35:29.553Z,33.97
2019-02-23T12:40:31.205Z,33.68
2019-02-23T12:45:32.755Z,34.17
2019-02-23T12:50:34.320Z,32.70
2019-02-23T12:55:36.119Z,33.73
2019-02-23T13:00:37.827Z,34.29
2019-02-23T13:05:39.481Z,34.43
2019-02-23T13:10:41.342Z,34.75
2019-02-23T13:16:00.442Z,34.49
2019-02-23T13:21:16.612Z,34.94
2019-02-23T13:26:29.627Z,36.74
2019-02-23T13:32:03.939Z,35.56
2019-02-23T13:37:41.424Z,33.58
2019-02-23T13:43:23.467Z,30.63
2019-02-23T13:49:01.919Z,29.90
2019-02-23T13:54:40.774Z,30.44
2019-02-23T14:00:16.381Z,30.32
2019-02-23T14:05:35.143Z,30.75
2019-02-23T14:11:10.615Z,28.19
2019-02-23T14:16:38.810Z,27.27
2019-02-23T14:22:00.357Z,29.87
2019-02-23T14:27:38.989Z,28.86
2019-02-23T14:33:27.240Z,29.37
2019-02-23T14:38:43.113Z,29.27
2019-02-23T14:44:02.205Z,29.43
2019-02-23T14:49:28.564Z,29.56
2019-02-23T14:55:00.726Z,28.62
2019-02-23T15:00:14.805Z,29.62
2019-02-23T15:05:30.885Z,31.04
2019-02-23T15:11:05.006Z,31.28
2019-02-23T15:16:50.194Z,31.40
2019-02-23T15:22:34.997Z,30.87
2019-02-23T15:28:24.878Z,31.18
2019-02-23T15:33:41.477Z,31.82
2019-02-23T15:39:12.814Z,31.74
2019-02-23T15:45:03.528Z,32.62
2019-02-23T15:50:13.119Z,33.48
2019-02-23T15:55:08.870Z,34.19
2019-02-23T16:00:10.725Z,34.07
2019-02-23T16:05:12.984Z,35.73
2019-02-23T16:10:17.585Z,34.98
2019-02-23T16:15:18.184Z,36.66
2019-02-23T16:20:19.844Z,34.80
2019-02-23T16:25:21.405Z,35.90
2019-02-23T16:30:22.981Z,36.20
2019-02-23T16:35:24.671Z,36.77
2019-02-23T16:40:26.267Z,37.67
2019-02-23T16:45:27.906Z,36.75
2019-02-23T16:50:29.466Z,37.52
2019-02-23T16:55:32.141Z,38.16
2019-02-23T17:00:33.988Z,37.66
2019-02-23T17:05:35.695Z,38.58
2019-02-23T17:10:37.352Z,38.95
2019-02-23T17:15:38.918Z,39.71
2019-02-23T17:20:40.496Z,40.14
2019-02-23T17:25:42.059Z,39.88
2019-02-23T17:30:43.666Z,41.86
2019-02-23T17:35:45.287Z,41.49
2019-02-23T17:40:46.885Z,40.73
2019-02-23T17:45:48.531Z,40.26
2019-02-23T17:50:50.778Z,41.01
2019-02-23T17:55:52.417Z,41.32
2019-02-23T18:00:55.602Z,41.36
2019-02-23T18:05:58.393Z,41.12
2019-02-23T18:11:00.562Z,41.91
2019-02-23T18:16:02.212Z,43.01
2019-02-23T18:21:03.984Z,43.55
2019-02-23T18:26:05.636Z,44.46
2019-02-23T18:31:07.388Z,44.27
2019-02-23T18:36:08.982Z,44.20
2019-02-23T18:41:10.884Z,45.52
2019-02-23T18:46:12.622Z,45.86
2019-02-23T18:51:14.424Z,44.25
2019-02-23T18:56:16.172Z,43.46
2019-02-23T19:01:17.970Z,44.65
2019-02-23T19:06:19.742Z,44.66
2019-02-23T19:11:21.432Z,45.33
2019-02-23T19:16:23.447Z,46.10
2019-02-23T19:21:25.061Z,48.11
2019-02-23T19:26:26.985Z,46.23
2019-02-23T19:31:28.707Z,46.68
2019-02-23T19:36:30.392Z,46.76
2019-02-23T19:41:32.053Z,46.62
2019-02-23T19:46:37.974Z,47.01
2019-02-23T19:51:39.640Z,47.95
2019-02-23T19:56:46.832Z,47.53
2019-02-23T20:01:45.057Z,47.13
2019-02-23T20:06:47.185Z,47.70
2019-02-23T20:11:48.843Z,47.86
2019-02-23T20:16:51.505Z,47.93
2019-02-23T20:21:53.075Z,48.52
2019-02-23T20:26:55.831Z,47.96
2019-02-23T20:31:57.575Z,48.06
2019-02-23T20:36:59.157Z,48.04
2019-02-23T20:42:00.807Z,48.01
2019-02-23T20:47:02.556Z,47.72
2019-02-23T20:52:04.333Z,49.51
2019-02-23T20:57:13.932Z,50.82
2019-02-23T21:02:13.335Z,49.48
2019-02-23T21:07:15.091Z,49.42
2019-02-23T21:12:16.740Z,49.98
2019-02-23T21:17:18.292Z,49.26
2019-02-23T21:22:19.866Z,49.53
2019-02-23T21:27:21.495Z,50.23
2019-02-23T21:32:23.100Z,50.86
2019-02-23T21:37:24.659Z,50.09
2019-02-23T21:42:26.216Z,49.73
2019-02-23T21:47:27.889Z,48.63
2019-02-23T21:52:29.448Z,49.79
2019-02-23T21:57:31.206Z,49.19
2019-02-23T22:02:32.813Z,49.73
2019-02-23T22:07:34.469Z,50.76
2019-02-23T22:12:37.021Z,50.51
2019-02-23T22:17:38.567Z,49.93
2019-02-23T22:22:40.119Z,49.47
2019-02-23T22:27:41.671Z,50.19
2019-02-23T22:32:43.267Z,50.69
2019-02-23T22:37:44.878Z,50.60
2019-02-23T22:42:46.431Z,51.67
2019-02-23T22:47:48.070Z,51.58
2019-02-23T22:52:49.628Z,52.34
2019-02-23T22:57:51.193Z,52.01
2019-02-23T23:02:52.940Z,51.86
2019-02-23T23:07:55.380Z,51.78
2019-02-23T23:12:57.806Z,53.02
2019-02-23T23:17:59.444Z,53.39
2019-02-23T23:23:01.005Z,52.75
2019-02-23T23:28:02.567Z,52.97
2019-02-23T23:33:05.261Z,53.42
2019-02-23T23:38:06.873Z,54.13
2019-02-23T23:43:08.423Z,53.12
2019-02-23T23:48:10.059Z,54.03
2019-02-23T23:53:11.742Z,55.53
2019-02-23T23:58:13.300Z,56.75
